sensor_id;sensor_type;location;lat;lon;timestamp;pressure;altitude;pressure_sealevel;temperature;humidity
53689;BME280;39583;54.682;30.662;2023-02-12T06:55:25;100393.91;;;-4.46;97.86
53689;BME280;39583;54.682;30.662;2023-02-12T06:57:51;100375.53;;;-4.33;97.07
53689;BME280;39583;54.682;30.662;2023-02-12T07:00:18;100386.06;;;-4.21;95.26
53689;BME280;39583;54.682;30.662;2023-02-12T07:02:44;100367.03;;;-4.24;94.90
53689;BME280;39583;54.682;30.662;2023-02-12T07:05:10;100394.06;;;-3.97;93.92
53689;BME280;39583;54.682;30.662;2023-02-12T07:07:36;100399.97;;;-3.93;93.54
53689;BME280;39583;54.682;30.662;2023-02-12T07:10:02;100399.56;;;-3.87;93.04
53689;BME280;39583;54.682;30.662;2023-02-12T07:12:29;100406.06;;;-3.80;92.75
53689;BME280;39583;54.682;30.662;2023-02-12T07:14:55;100391.88;;;-3.77;92.21
53689;BME280;39583;54.682;30.662;2023-02-12T07:17:22;100393.03;;;-3.69;92.35
53689;BME280;39583;54.682;30.662;2023-02-12T07:19:48;100391.66;;;-3.62;92.22
53689;BME280;39583;54.682;30.662;2023-02-12T07:22:14;100403.31;;;-3.53;91.81
53689;BME280;39583;54.682;30.662;2023-02-12T07:24:40;100392.72;;;-3.51;91.06
53689;BME280;39583;54.682;30.662;2023-02-12T07:27:06;100397.41;;;-3.44;90.96
53689;BME280;39583;54.682;30.662;2023-02-12T07:29:32;100395.84;;;-3.46;90.33
53689;BME280;39583;54.682;30.662;2023-02-12T07:31:59;100402.56;;;-3.42;90.72
53689;BME280;39583;54.682;30.662;2023-02-12T07:34:25;100402.56;;;-3.42;90.10
53689;BME280;39583;54.682;30.662;2023-02-12T07:36:51;100396.16;;;-3.38;89.96
53689;BME280;39583;54.682;30.662;2023-02-12T07:39:17;100391.75;;;-3.38;89.68
53689;BME280;39583;54.682;30.662;2023-02-12T07:41:43;100401.09;;;-3.34;89.26
53689;BME280;39583;54.682;30.662;2023-02-12T07:44:11;100419.19;;;-3.29;89.28
53689;BME280;39583;54.682;30.662;2023-02-12T07:49:09;100416.31;;;-3.13;88.66
53689;BME280;39583;54.682;30.662;2023-02-12T07:51:37;100405.47;;;-3.09;88.59
53689;BME280;39583;54.682;30.662;2023-02-12T07:54:04;100407.88;;;-3.06;88.10
53689;BME280;39583;54.682;30.662;2023-02-12T07:56:33;100413.13;;;-3.06;87.72
53689;BME280;39583;54.682;30.662;2023-02-12T07:59:05;100404.16;;;-3.03;87.54
53689;BME280;39583;54.682;30.662;2023-02-12T08:01:35;100423.97;;;-2.98;87.09
53689;BME280;39583;54.682;30.662;2023-02-12T08:04:08;100415.00;;;-2.95;86.49
53689;BME280;39583;54.682;30.662;2023-02-12T08:06:37;100391.94;;;-3.04;86.65
53689;BME280;39583;54.682;30.662;2023-02-12T08:09:07;100422.88;;;-2.82;85.64
53689;BME280;39583;54.682;30.662;2023-02-12T08:11:35;100440.59;;;-2.84;85.71
53689;BME280;39583;54.682;30.662;2023-02-12T08:14:02;100401.78;;;-2.82;84.91
53689;BME280;39583;54.682;30.662;2023-02-12T08:16:29;100417.06;;;-2.87;84.41
53689;BME280;39583;54.682;30.662;2023-02-12T08:18:57;100432.97;;;-2.76;84.49
53689;BME280;39583;54.682;30.662;2023-02-12T08:21:26;100441.41;;;-2.71;84.39
53689;BME280;39583;54.682;30.662;2023-02-12T08:23:54;100446.22;;;-2.65;83.68
53689;BME280;39583;54.682;30.662;2023-02-12T08:26:23;100435.66;;;-2.65;83.67
53689;BME280;39583;54.682;30.662;2023-02-12T08:28:51;100460.75;;;-2.59;82.94
53689;BME280;39583;54.682;30.662;2023-02-12T08:31:24;100455.25;;;-2.56;82.64
53689;BME280;39583;54.682;30.662;2023-02-12T08:33:52;100444.34;;;-2.52;82.33
53689;BME280;39583;54.682;30.662;2023-02-12T08:36:21;100439.19;;;-2.53;82.24
53689;BME280;39583;54.682;30.662;2023-02-12T08:38:48;100440.78;;;-2.51;82.39
53689;BME280;39583;54.682;30.662;2023-02-12T08:41:23;100444.66;;;-2.44;82.46
53689;BME280;39583;54.682;30.662;2023-02-12T08:43:52;100460.97;;;-2.39;81.68
53689;BME280;39583;54.682;30.662;2023-02-12T08:46:21;100461.56;;;-2.35;81.69
53689;BME280;39583;54.682;30.662;2023-02-12T08:48:50;100459.56;;;-2.31;81.70
53689;BME280;39583;54.682;30.662;2023-02-12T08:51:20;100464.00;;;-2.32;81.53
53689;BME280;39583;54.682;30.662;2023-02-12T08:53:47;100467.97;;;-2.26;81.39
53689;BME280;39583;54.682;30.662;2023-02-12T08:56:15;100459.69;;;-2.33;81.46
53689;BME280;39583;54.682;30.662;2023-02-12T08:58:43;100468.25;;;-2.18;81.71
53689;BME280;39583;54.682;30.662;2023-02-12T09:01:15;100471.38;;;-2.13;81.56
53689;BME280;39583;54.682;30.662;2023-02-12T09:03:43;100481.81;;;-2.12;81.41
53689;BME280;39583;54.682;30.662;2023-02-12T09:06:10;100473.47;;;-2.05;81.18
53689;BME280;39583;54.682;30.662;2023-02-12T09:08:38;100484.28;;;-1.97;81.49
53689;BME280;39583;54.682;30.662;2023-02-12T09:11:05;100465.25;;;-1.90;81.84
53689;BME280;39583;54.682;30.662;2023-02-12T09:13:33;100476.91;;;-1.81;81.78
53689;BME280;39583;54.682;30.662;2023-02-12T09:16:01;100484.00;;;-1.82;81.60
53689;BME280;39583;54.682;30.662;2023-02-12T09:18:29;100483.34;;;-1.85;81.19
53689;BME280;39583;54.682;30.662;2023-02-12T09:21:03;100499.00;;;-1.82;80.77
53689;BME280;39583;54.682;30.662;2023-02-12T09:23:30;100495.28;;;-1.80;81.00
53689;BME280;39583;54.682;30.662;2023-02-12T09:25:56;100496.84;;;-1.77;80.63
53689;BME280;39583;54.682;30.662;2023-02-12T09:28:23;100481.78;;;-1.88;80.54
53689;BME280;39583;54.682;30.662;2023-02-12T09:30:49;100482.78;;;-1.77;80.88
53689;BME280;39583;54.682;30.662;2023-02-12T09:33:16;100491.94;;;-1.59;81.04
53689;BME280;39583;54.682;30.662;2023-02-12T09:35:42;100504.69;;;-1.53;81.15
53689;BME280;39583;54.682;30.662;2023-02-12T09:38:08;100508.41;;;-1.44;81.23
53689;BME280;39583;54.682;30.662;2023-02-12T09:43:59;100499.19;;;-1.39;80.78
53689;BME280;39583;54.682;30.662;2023-02-12T09:49:08;100525.75;;;-1.40;79.81
53689;BME280;39583;54.682;30.662;2023-02-12T09:51:41;100524.25;;;-1.44;79.72
53689;BME280;39583;54.682;30.662;2023-02-12T09:54:16;100509.25;;;-1.44;79.63
53689;BME280;39583;54.682;30.662;2023-02-12T09:56:46;100511.06;;;-1.44;79.37
53689;BME280;39583;54.682;30.662;2023-02-12T10:01:49;100514.94;;;-1.37;78.64
53689;BME280;39583;54.682;30.662;2023-02-12T10:04:15;100517.22;;;-1.33;78.78
53689;BME280;39583;54.682;30.662;2023-02-12T10:06:57;100515.78;;;-1.26;78.99
53689;BME280;39583;54.682;30.662;2023-02-12T10:12:50;100516.97;;;-1.19;78.45
53689;BME280;39583;54.682;30.662;2023-02-12T10:20:53;100524.69;;;-1.15;77.63
53689;BME280;39583;54.682;30.662;2023-02-12T10:26:30;100537.78;;;-1.14;77.19
53689;BME280;39583;54.682;30.662;2023-02-12T10:29:09;100533.69;;;-1.07;77.69
53689;BME280;39583;54.682;30.662;2023-02-12T10:31:39;100525.28;;;-1.12;76.72
53689;BME280;39583;54.682;30.662;2023-02-12T10:34:34;100562.16;;;-1.10;75.96
53689;BME280;39583;54.682;30.662;2023-02-12T10:37:37;100545.94;;;-1.06;76.04
53689;BME280;39583;54.682;30.662;2023-02-12T10:42:46;100531.44;;;-1.00;76.70
53689;BME280;39583;54.682;30.662;2023-02-12T10:45:23;100543.44;;;-0.85;76.85
53689;BME280;39583;54.682;30.662;2023-02-12T10:47:53;100559.31;;;-0.74;77.04
53689;BME280;39583;54.682;30.662;2023-02-12T10:53:23;100555.56;;;-0.71;76.29
53689;BME280;39583;54.682;30.662;2023-02-12T10:56:14;100539.38;;;-0.78;75.37
53689;BME280;39583;54.682;30.662;2023-02-12T10:58:54;100520.34;;;-0.72;75.54
53689;BME280;39583;54.682;30.662;2023-02-12T11:01:22;100543.19;;;-0.71;74.17
53689;BME280;39583;54.682;30.662;2023-02-12T11:03:52;100535.38;;;-0.83;74.73
53689;BME280;39583;54.682;30.662;2023-02-12T11:06:21;100540.91;;;-0.64;75.40
53689;BME280;39583;54.682;30.662;2023-02-12T11:08:48;100547.75;;;-0.62;75.56
53689;BME280;39583;54.682;30.662;2023-02-12T11:11:19;100532.09;;;-0.53;76.45
53689;BME280;39583;54.682;30.662;2023-02-12T11:13:57;100554.34;;;-0.45;76.37
53689;BME280;39583;54.682;30.662;2023-02-12T11:16:33;100569.50;;;-0.47;76.23
53689;BME280;39583;54.682;30.662;2023-02-12T11:19:03;100561.31;;;-0.44;75.59
53689;BME280;39583;54.682;30.662;2023-02-12T11:21:30;100518.31;;;-0.79;74.73
53689;BME280;39583;54.682;30.662;2023-02-12T11:24:19;100575.06;;;-0.50;75.35
53689;BME280;39583;54.682;30.662;2023-02-12T11:26:44;100577.69;;;-0.39;75.73
53689;BME280;39583;54.682;30.662;2023-02-12T11:32:02;100563.25;;;-0.35;75.38
53689;BME280;39583;54.682;30.662;2023-02-12T11:34:28;100577.19;;;-0.33;75.45
53689;BME280;39583;54.682;30.662;2023-02-12T11:36:55;100578.28;;;-0.35;73.72
53689;BME280;39583;54.682;30.662;2023-02-12T11:39:37;100579.81;;;-0.33;74.75
53689;BME280;39583;54.682;30.662;2023-02-12T11:42:16;100561.91;;;-0.40;74.42
53689;BME280;39583;54.682;30.662;2023-02-12T11:44:50;100541.50;;;-0.49;74.29
53689;BME280;39583;54.682;30.662;2023-02-12T11:47:37;100563.44;;;-0.26;74.06
53689;BME280;39583;54.682;30.662;2023-02-12T11:50:21;100550.13;;;-0.36;74.15
53689;BME280;39583;54.682;30.662;2023-02-12T11:52:53;100560.06;;;-0.17;75.07
53689;BME280;39583;54.682;30.662;2023-02-12T11:55:36;100549.84;;;-0.11;75.57
53689;BME280;39583;54.682;30.662;2023-02-12T11:58:17;100558.22;;;-0.06;75.75
53689;BME280;39583;54.682;30.662;2023-02-12T12:03:34;100582.59;;;0.09;75.76
53689;BME280;39583;54.682;30.662;2023-02-12T12:06:10;100585.13;;;0.11;75.33
53689;BME280;39583;54.682;30.662;2023-02-12T12:08:50;100587.78;;;0.11;74.76
53689;BME280;39583;54.682;30.662;2023-02-12T12:13:56;100553.16;;;0.03;74.72
53689;BME280;39583;54.682;30.662;2023-02-12T12:17:14;100572.38;;;0.16;74.60
53689;BME280;39583;54.682;30.662;2023-02-12T12:19:41;100594.72;;;0.23;74.75
53689;BME280;39583;54.682;30.662;2023-02-12T12:25:19;100592.38;;;0.41;74.97
53689;BME280;39583;54.682;30.662;2023-02-12T12:30:51;100604.72;;;0.51;74.60
53689;BME280;39583;54.682;30.662;2023-02-12T12:33:34;100616.56;;;0.47;74.16
53689;BME280;39583;54.682;30.662;2023-02-12T12:39:02;100633.47;;;0.35;74.40
53689;BME280;39583;54.682;30.662;2023-02-12T12:41:51;100616.63;;;0.25;74.00
53689;BME280;39583;54.682;30.662;2023-02-12T12:49:40;100637.09;;;0.23;75.88
53689;BME280;39583;54.682;30.662;2023-02-12T12:52:58;100633.72;;;0.32;76.54
53689;BME280;39583;54.682;30.662;2023-02-12T12:55:59;100626.59;;;0.33;76.28
53689;BME280;39583;54.682;30.662;2023-02-12T12:58:24;100637.78;;;0.36;76.34
53689;BME280;39583;54.682;30.662;2023-02-12T13:09:47;100628.13;;;0.03;76.43
53689;BME280;39583;54.682;30.662;2023-02-12T13:12:44;100640.81;;;-0.12;76.48
53689;BME280;39583;54.682;30.662;2023-02-12T13:15:38;100648.75;;;-0.23;76.41
53689;BME280;39583;54.682;30.662;2023-02-12T13:23:52;100599.31;;;-0.56;76.75
53689;BME280;39583;54.682;30.662;2023-02-12T13:26:39;100660.66;;;-0.28;76.67
53689;BME280;39583;54.682;30.662;2023-02-12T13:29:16;100656.31;;;-0.41;76.64
53689;BME280;39583;54.682;30.662;2023-02-12T13:31:52;100653.09;;;-0.44;77.18
53689;BME280;39583;54.682;30.662;2023-02-12T13:34:20;100636.59;;;-0.59;76.72
53689;BME280;39583;54.682;30.662;2023-02-12T13:36:48;100629.38;;;-0.68;76.96
53689;BME280;39583;54.682;30.662;2023-02-12T13:39:21;100661.13;;;-0.57;76.95
53689;BME280;39583;54.682;30.662;2023-02-12T13:42:16;100605.69;;;-0.92;77.40
53689;BME280;39583;54.682;30.662;2023-02-12T13:51:06;100678.34;;;-0.63;76.73
53689;BME280;39583;54.682;30.662;2023-02-12T14:02:09;100694.31;;;-0.75;76.33
53689;BME280;39583;54.682;30.662;2023-02-12T14:07:19;100701.84;;;-0.82;76.32
53689;BME280;39583;54.682;30.662;2023-02-12T14:12:29;100698.84;;;-0.88;76.19
53689;BME280;39583;54.682;30.662;2023-02-12T14:15:08;100705.09;;;-0.90;76.17
53689;BME280;39583;54.682;30.662;2023-02-12T14:20:06;100697.84;;;-0.99;76.86
53689;BME280;39583;54.682;30.662;2023-02-12T14:25:04;100696.00;;;-1.09;77.02
53689;BME280;39583;54.682;30.662;2023-02-12T14:28:06;100682.41;;;-1.16;76.87
53689;BME280;39583;54.682;30.662;2023-02-12T14:30:39;100689.22;;;-1.25;77.22
53689;BME280;39583;54.682;30.662;2023-02-12T14:35:35;100674.28;;;-1.37;77.54
53689;BME280;39583;54.682;30.662;2023-02-12T14:46:58;100682.72;;;-1.80;78.95
53689;BME280;39583;54.682;30.662;2023-02-12T14:49:37;100694.78;;;-1.88;79.55
53689;BME280;39583;54.682;30.662;2023-02-12T14:54:51;100705.47;;;-2.02;80.10
53689;BME280;39583;54.682;30.662;2023-02-12T14:59:49;100707.28;;;-2.03;80.83
53689;BME280;39583;54.682;30.662;2023-02-12T15:02:24;100705.59;;;-2.04;80.92
53689;BME280;39583;54.682;30.662;2023-02-12T15:04:53;100705.59;;;-2.04;81.29
53689;BME280;39583;54.682;30.662;2023-02-12T15:07:44;100707.16;;;-2.01;81.29
53689;BME280;39583;54.682;30.662;2023-02-12T15:10:22;100706.81;;;-1.97;81.20
53689;BME280;39583;54.682;30.662;2023-02-12T15:15:34;100713.25;;;-1.88;81.78
53689;BME280;39583;54.682;30.662;2023-02-12T15:21:29;100714.81;;;-1.86;81.53
53689;BME280;39583;54.682;30.662;2023-02-12T15:26:38;100704.94;;;-1.95;81.87
53689;BME280;39583;54.682;30.662;2023-02-12T15:29:06;100713.25;;;-1.88;81.82
53689;BME280;39583;54.682;30.662;2023-02-12T15:31:41;100716.13;;;-1.91;82.17
53689;BME280;39583;54.682;30.662;2023-02-12T15:34:18;100717.69;;;-1.89;82.02
53689;BME280;39583;54.682;30.662;2023-02-12T15:36:46;100719.38;;;-1.88;82.62
53689;BME280;39583;54.682;30.662;2023-02-12T15:39:19;100720.00;;;-1.84;82.12
53689;BME280;39583;54.682;30.662;2023-02-12T15:41:49;100730.34;;;-1.81;82.20
53689;BME280;39583;54.682;30.662;2023-02-12T15:44:21;100735.53;;;-1.80;81.75
53689;BME280;39583;54.682;30.662;2023-02-12T15:49:34;100743.94;;;-1.74;81.58
53689;BME280;39583;54.682;30.662;2023-02-12T15:52:29;100718.19;;;-1.84;81.04
53689;BME280;39583;54.682;30.662;2023-02-12T15:54:52;100726.53;;;-1.77;81.27
53689;BME280;39583;54.682;30.662;2023-02-12T15:57:22;100725.81;;;-1.79;80.97
53689;BME280;39583;54.682;30.662;2023-02-12T15:59:54;100726.66;;;-1.79;80.82
53689;BME280;39583;54.682;30.662;2023-02-12T16:02:25;100721.47;;;-1.80;80.92
53689;BME280;39583;54.682;30.662;2023-02-12T16:04:57;100712.72;;;-1.81;81.04
53689;BME280;39583;54.682;30.662;2023-02-12T16:07:25;100706.59;;;-1.81;81.46
53689;BME280;39583;54.682;30.662;2023-02-12T16:09:54;100703.13;;;-1.82;81.42
53689;BME280;39583;54.682;30.662;2023-02-12T16:12:25;100692.44;;;-1.80;81.63
53689;BME280;39583;54.682;30.662;2023-02-12T16:14:55;100685.47;;;-1.81;81.75
53689;BME280;39583;54.682;30.662;2023-02-12T16:22:31;100699.81;;;-1.85;82.10
53689;BME280;39583;54.682;30.662;2023-02-12T16:25:00;100694.78;;;-1.88;82.02
53689;BME280;39583;54.682;30.662;2023-02-12T16:27:32;100699.22;;;-1.89;82.24
53689;BME280;39583;54.682;30.662;2023-02-12T16:30:05;100698.47;;;-1.91;82.36
53689;BME280;39583;54.682;30.662;2023-02-12T16:32:41;100701.47;;;-1.95;82.92
53689;BME280;39583;54.682;30.662;2023-02-12T16:40:20;100671.34;;;-2.29;82.83
53689;BME280;39583;54.682;30.662;2023-02-12T16:48:01;100680.50;;;-2.35;82.99
53689;BME280;39583;54.682;30.662;2023-02-12T16:50:32;100680.84;;;-2.40;83.23
53689;BME280;39583;54.682;30.662;2023-02-12T16:53:05;100690.97;;;-2.46;83.17
53689;BME280;39583;54.682;30.662;2023-02-12T16:55:32;100686.75;;;-2.49;83.28
53689;BME280;39583;54.682;30.662;2023-02-12T16:57:59;100678.94;;;-2.50;83.81
53689;BME280;39583;54.682;30.662;2023-02-12T17:00:26;100679.91;;;-2.51;83.60
53689;BME280;39583;54.682;30.662;2023-02-12T17:02:55;100676.63;;;-2.55;83.67
53689;BME280;39583;54.682;30.662;2023-02-12T17:05:22;100657.97;;;-2.64;83.94
53689;BME280;39583;54.682;30.662;2023-02-12T17:07:49;100675.91;;;-2.57;84.41
53689;BME280;39583;54.682;30.662;2023-02-12T17:10:16;100669.69;;;-2.56;84.35
53689;BME280;39583;54.682;30.662;2023-02-12T17:12:47;100666.94;;;-2.54;84.46
53689;BME280;39583;54.682;30.662;2023-02-12T17:15:31;100668.72;;;-2.55;83.99
53689;BME280;39583;54.682;30.662;2023-02-12T17:17:58;100665.88;;;-2.52;84.47
53689;BME280;39583;54.682;30.662;2023-02-12T17:20:24;100667.44;;;-2.49;84.20
53689;BME280;39583;54.682;30.662;2023-02-12T17:22:53;100663.78;;;-2.47;84.28
53689;BME280;39583;54.682;30.662;2023-02-12T17:25:19;100663.78;;;-2.47;84.45
53689;BME280;39583;54.682;30.662;2023-02-12T17:27:46;100673.88;;;-2.41;84.64
53689;BME280;39583;54.682;30.662;2023-02-12T17:30:18;100676.41;;;-2.39;84.25
53689;BME280;39583;54.682;30.662;2023-02-12T17:32:46;100672.94;;;-2.40;84.21
53689;BME280;39583;54.682;30.662;2023-02-12T17:35:14;100651.94;;;-2.54;84.27
53689;BME280;39583;54.682;30.662;2023-02-12T17:37:43;100657.66;;;-2.47;84.27
53689;BME280;39583;54.682;30.662;2023-02-12T17:40:14;100660.69;;;-2.53;84.24
53689;BME280;39583;54.682;30.662;2023-02-12T17:42:41;100654.06;;;-2.59;84.04
53689;BME280;39583;54.682;30.662;2023-02-12T17:45:07;100649.75;;;-2.60;84.30
53689;BME280;39583;54.682;30.662;2023-02-12T17:47:34;100662.94;;;-2.60;84.18
53689;BME280;39583;54.682;30.662;2023-02-12T17:50:09;100657.00;;;-2.63;84.45
53689;BME280;39583;54.682;30.662;2023-02-12T17:52:36;100655.31;;;-2.64;84.44
53689;BME280;39583;54.682;30.662;2023-02-12T17:55:03;100650.28;;;-2.68;84.39
53689;BME280;39583;54.682;30.662;2023-02-12T17:57:30;100645.22;;;-2.71;84.61
53689;BME280;39583;54.682;30.662;2023-02-12T17:59:57;100644.38;;;-2.71;84.33
53689;BME280;39583;54.682;30.662;2023-02-12T18:02:23;100642.78;;;-2.74;84.59
53689;BME280;39583;54.682;30.662;2023-02-12T18:04:50;100637.59;;;-2.75;84.38
53689;BME280;39583;54.682;30.662;2023-02-12T18:07:17;100635.19;;;-2.78;84.73
53689;BME280;39583;54.682;30.662;2023-02-12T18:09:44;100634.34;;;-2.79;84.88
53689;BME280;39583;54.682;30.662;2023-02-12T18:12:11;100628.13;;;-2.78;84.82
53689;BME280;39583;54.682;30.662;2023-02-12T18:14:38;100626.44;;;-2.79;85.01
53689;BME280;39583;54.682;30.662;2023-02-12T18:17:05;100620.22;;;-2.78;85.05
53689;BME280;39583;54.682;30.662;2023-02-12T18:19:32;100614.84;;;-2.76;85.09
53689;BME280;39583;54.682;30.662;2023-02-12T18:21:58;100614.53;;;-2.72;85.27
53689;BME280;39583;54.682;30.662;2023-02-12T18:24:24;100613.88;;;-2.75;84.96
53689;BME280;39583;54.682;30.662;2023-02-12T18:26:50;100623.69;;;-2.77;85.17
53689;BME280;39583;54.682;30.662;2023-02-12T18:29:18;100626.44;;;-2.79;85.21
53689;BME280;39583;54.682;30.662;2023-02-12T18:31:45;100625.38;;;-2.76;85.18
53689;BME280;39583;54.682;30.662;2023-02-12T18:34:12;100619.38;;;-2.78;85.22
53689;BME280;39583;54.682;30.662;2023-02-12T18:36:38;100618.53;;;-2.79;85.10
53689;BME280;39583;54.682;30.662;2023-02-12T18:39:04;100626.34;;;-2.77;85.25
53689;BME280;39583;54.682;30.662;2023-02-12T18:41:31;100630.03;;;-2.80;85.17
53689;BME280;39583;54.682;30.662;2023-02-12T18:43:58;100621.59;;;-2.85;85.16
53689;BME280;39583;54.682;30.662;2023-02-12T18:46:28;100621.59;;;-2.85;85.45
53689;BME280;39583;54.682;30.662;2023-02-12T18:48:56;100605.97;;;-3.01;85.30
53689;BME280;39583;54.682;30.662;2023-02-12T18:51:25;100608.53;;;-2.99;85.96
53689;BME280;39583;54.682;30.662;2023-02-12T18:53:59;100599.25;;;-3.05;85.98
53689;BME280;39583;54.682;30.662;2023-02-12T18:56:30;100605.69;;;-3.09;85.98
53689;BME280;39583;54.682;30.662;2023-02-12T18:58:59;100598.00;;;-3.12;86.03
53689;BME280;39583;54.682;30.662;2023-02-12T19:01:27;100593.66;;;-3.13;86.30
53689;BME280;39583;54.682;30.662;2023-02-12T19:04:01;100598.91;;;-3.13;86.36
53689;BME280;39583;54.682;30.662;2023-02-12T19:06:29;100595.78;;;-3.18;85.98
53689;BME280;39583;54.682;30.662;2023-02-12T19:08:57;100589.03;;;-3.22;85.75
53689;BME280;39583;54.682;30.662;2023-02-12T19:11:25;100588.41;;;-3.25;86.21
53689;BME280;39583;54.682;30.662;2023-02-12T19:13:52;100575.97;;;-3.36;86.15
53689;BME280;39583;54.682;30.662;2023-02-12T19:16:20;100570.13;;;-3.41;85.64
53689;BME280;39583;54.682;30.662;2023-02-12T19:18:51;100590.06;;;-3.37;85.88
53689;BME280;39583;54.682;30.662;2023-02-12T19:21:21;100591.75;;;-3.36;86.09
53689;BME280;39583;54.682;30.662;2023-02-12T19:23:47;100585.00;;;-3.40;85.79
53689;BME280;39583;54.682;30.662;2023-02-12T19:26:16;100586.59;;;-3.38;86.30
53689;BME280;39583;54.682;30.662;2023-02-12T19:28:43;100586.28;;;-3.33;86.06
53689;BME280;39583;54.682;30.662;2023-02-12T19:31:15;100581.41;;;-3.27;86.05
53689;BME280;39583;54.682;30.662;2023-02-12T19:33:42;100572.28;;;-3.21;86.40
53689;BME280;39583;54.682;30.662;2023-02-12T19:36:11;100570.81;;;-3.12;86.00
53689;BME280;39583;54.682;30.662;2023-02-12T19:38:38;100575.03;;;-3.10;86.28
53689;BME280;39583;54.682;30.662;2023-02-12T19:41:10;100577.84;;;-3.00;86.09
53689;BME280;39583;54.682;30.662;2023-02-12T19:43:37;100582.59;;;-2.92;86.33
53689;BME280;39583;54.682;30.662;2023-02-12T19:46:05;100565.63;;;-2.88;85.94
53689;BME280;39583;54.682;30.662;2023-02-12T19:48:31;100573.41;;;-2.87;85.86
53689;BME280;39583;54.682;30.662;2023-02-12T19:50:57;100550.88;;;-2.91;86.15
53689;BME280;39583;54.682;30.662;2023-02-12T19:53:25;100550.22;;;-2.82;86.23
53689;BME280;39583;54.682;30.662;2023-02-12T19:55:51;100544.97;;;-2.82;86.11
53689;BME280;39583;54.682;30.662;2023-02-12T19:58:18;100545.19;;;-2.85;85.73
53689;BME280;39583;54.682;30.662;2023-02-12T20:00:44;100538.31;;;-2.87;85.92
53689;BME280;39583;54.682;30.662;2023-02-12T20:03:10;100531.78;;;-2.94;85.83
53689;BME280;39583;54.682;30.662;2023-02-12T20:05:39;100540.09;;;-2.88;85.67
53689;BME280;39583;54.682;30.662;2023-02-12T20:08:18;100534.31;;;-2.93;85.70
53689;BME280;39583;54.682;30.662;2023-02-12T20:10:45;100526.63;;;-2.96;86.01
53689;BME280;39583;54.682;30.662;2023-02-12T20:13:11;100519.56;;;-2.95;86.34
53689;BME280;39583;54.682;30.662;2023-02-12T20:15:37;100518.72;;;-2.96;86.50
53689;BME280;39583;54.682;30.662;2023-02-12T20:18:05;100493.97;;;-3.06;86.28
53689;BME280;39583;54.682;30.662;2023-02-12T20:20:32;100510.19;;;-3.00;86.36
53689;BME280;39583;54.682;30.662;2023-02-12T20:22:59;100511.91;;;-2.99;86.34
53689;BME280;39583;54.682;30.662;2023-02-12T20:25:25;100507.75;;;-3.03;86.13
53689;BME280;39583;54.682;30.662;2023-02-12T20:27:52;100501.53;;;-3.02;86.04
53689;BME280;39583;54.682;30.662;2023-02-12T20:30:18;100508.72;;;-3.04;86.13
53689;BME280;39583;54.682;30.662;2023-02-12T20:32:45;100502.72;;;-3.06;86.48
53689;BME280;39583;54.682;30.662;2023-02-12T20:35:12;100498.06;;;-3.02;86.39
53689;BME280;39583;54.682;30.662;2023-02-12T20:37:39;100487.22;;;-2.98;86.63
53689;BME280;39583;54.682;30.662;2023-02-12T20:40:06;100473.28;;;-3.00;86.71
53689;BME280;39583;54.682;30.662;2023-02-12T20:42:32;100483.19;;;-2.90;86.83
53689;BME280;39583;54.682;30.662;2023-02-12T20:44:58;100478.53;;;-2.87;87.06
53689;BME280;39583;54.682;30.662;2023-02-12T20:47:24;100469.47;;;-2.83;87.15
53689;BME280;39583;54.682;30.662;2023-02-12T20:49:54;100476.09;;;-2.77;86.65
53689;BME280;39583;54.682;30.662;2023-02-12T20:52:21;100473.88;;;-2.71;86.95
53689;BME280;39583;54.682;30.662;2023-02-12T20:54:47;100465.63;;;-2.66;86.58
53689;BME280;39583;54.682;30.662;2023-02-12T20:57:14;100449.72;;;-2.77;86.60
53689;BME280;39583;54.682;30.662;2023-02-12T20:59:40;100461.78;;;-2.62;87.21
53689;BME280;39583;54.682;30.662;2023-02-12T21:02:06;100447.22;;;-2.55;86.79
53689;BME280;39583;54.682;30.662;2023-02-12T21:04:32;100439.31;;;-2.55;87.16
53689;BME280;39583;54.682;30.662;2023-02-12T21:06:59;100449.94;;;-2.44;87.36
